sensor_id;sensor_type;location;lat;lon;timestamp;P1;durP1;ratioP1;P2;durP2;ratioP2
50853;SDS011;44154;45.506;-122.806;2022-10-16T00:01:21;6.40;;;4.90;;
50853;SDS011;44154;45.506;-122.806;2022-10-16T00:03:50;7.05;;;5.38;;
50853;SDS011;44154;45.506;-122.806;2022-10-16T00:06:17;7.38;;;4.75;;
50853;SDS011;44154;45.506;-122.806;2022-10-16T00:08:45;7.32;;;4.78;;
50853;SDS011;44154;45.506;-122.806;2022-10-16T00:11:13;6.75;;;4.63;;
50853;SDS011;44154;45.506;-122.806;2022-10-16T00:13:42;7.22;;;4.93;;
50853;SDS011;44154;45.506;-122.806;2022-10-16T00:16:10;6.45;;;4.35;;
50853;SDS011;44154;45.506;-122.806;2022-10-16T00:18:37;7.25;;;4.78;;
50853;SDS011;44154;45.506;-122.806;2022-10-16T00:21:08;7.13;;;5.15;;
50853;SDS011;44154;45.506;-122.806;2022-10-16T00:26:04;6.18;;;4.57;;
50853;SDS011;44154;45.506;-122.806;2022-10-16T00:28:34;6.40;;;4.90;;
50853;SDS011;44154;45.506;-122.806;2022-10-16T00:31:05;6.82;;;4.90;;
50853;SDS011;44154;45.506;-122.806;2022-10-16T00:33:32;6.65;;;4.65;;
50853;SDS011;44154;45.506;-122.806;2022-10-16T00:35:59;7.55;;;5.13;;
50853;SDS011;44154;45.506;-122.806;2022-10-16T00:38:26;8.30;;;5.18;;
50853;SDS011;44154;45.506;-122.806;2022-10-16T00:40:52;7.22;;;5.22;;
50853;SDS011;44154;45.506;-122.806;2022-10-16T00:48:57;7.07;;;4.72;;
50853;SDS011;44154;45.506;-122.806;2022-10-16T00:51:30;7.00;;;5.00;;
50853;SDS011;44154;45.506;-122.806;2022-10-16T00:54:05;7.30;;;5.32;;
50853;SDS011;44154;45.506;-122.806;2022-10-16T00:56:34;6.03;;;4.70;;
50853;SDS011;44154;45.506;-122.806;2022-10-16T00:59:02;6.97;;;4.78;;
50853;SDS011;44154;45.506;-122.806;2022-10-16T01:01:32;5.82;;;4.22;;
50853;SDS011;44154;45.506;-122.806;2022-10-16T01:03:58;6.78;;;5.13;;
50853;SDS011;44154;45.506;-122.806;2022-10-16T01:15:22;5.82;;;4.30;;
50853;SDS011;44154;45.506;-122.806;2022-10-16T01:18:08;5.38;;;4.63;;
50853;SDS011;44154;45.506;-122.806;2022-10-16T01:21:10;6.97;;;4.88;;
50853;SDS011;44154;45.506;-122.806;2022-10-16T01:29:20;5.80;;;4.35;;
50853;SDS011;44154;45.506;-122.806;2022-10-16T01:31:59;6.35;;;4.65;;
50853;SDS011;44154;45.506;-122.806;2022-10-16T01:37:04;6.45;;;4.80;;
50853;SDS011;44154;45.506;-122.806;2022-10-16T01:39:35;5.93;;;4.30;;
50853;SDS011;44154;45.506;-122.806;2022-10-16T01:42:16;5.70;;;4.70;;
50853;SDS011;44154;45.506;-122.806;2022-10-16T01:44:48;6.20;;;4.60;;
50853;SDS011;44154;45.506;-122.806;2022-10-16T01:47:16;6.20;;;4.50;;
50853;SDS011;44154;45.506;-122.806;2022-10-16T01:49:47;5.75;;;4.50;;
50853;SDS011;44154;45.506;-122.806;2022-10-16T01:52:15;5.95;;;4.57;;
50853;SDS011;44154;45.506;-122.806;2022-10-16T01:54:46;6.38;;;4.28;;
50853;SDS011;44154;45.506;-122.806;2022-10-16T01:57:15;5.78;;;4.40;;
50853;SDS011;44154;45.506;-122.806;2022-10-16T01:59:45;6.50;;;4.55;;
50853;SDS011;44154;45.506;-122.806;2022-10-16T02:02:15;5.82;;;4.65;;
50853;SDS011;44154;45.506;-122.806;2022-10-16T02:04:43;5.85;;;4.38;;
50853;SDS011;44154;45.506;-122.806;2022-10-16T02:07:37;5.68;;;4.53;;
50853;SDS011;44154;45.506;-122.806;2022-10-16T02:10:03;5.68;;;4.57;;
50853;SDS011;44154;45.506;-122.806;2022-10-16T02:12:33;5.32;;;4.07;;
50853;SDS011;44154;45.506;-122.806;2022-10-16T02:15:01;6.75;;;4.43;;
50853;SDS011;44154;45.506;-122.806;2022-10-16T02:17:28;5.50;;;4.50;;
50853;SDS011;44154;45.506;-122.806;2022-10-16T02:19:55;5.90;;;4.35;;
50853;SDS011;44154;45.506;-122.806;2022-10-16T02:22:32;5.65;;;4.70;;
50853;SDS011;44154;45.506;-122.806;2022-10-16T02:30:45;5.50;;;4.53;;
50853;SDS011;44154;45.506;-122.806;2022-10-16T02:33:16;5.47;;;4.20;;
50853;SDS011;44154;45.506;-122.806;2022-10-16T02:35:44;5.93;;;4.88;;
50853;SDS011;44154;45.506;-122.806;2022-10-16T02:38:14;5.45;;;4.60;;
50853;SDS011;44154;45.506;-122.806;2022-10-16T02:40:41;5.90;;;4.82;;
50853;SDS011;44154;45.506;-122.806;2022-10-16T02:43:08;5.80;;;4.32;;
50853;SDS011;44154;45.506;-122.806;2022-10-16T02:45:35;5.30;;;4.43;;
50853;SDS011;44154;45.506;-122.806;2022-10-16T02:48:01;5.75;;;4.53;;
50853;SDS011;44154;45.506;-122.806;2022-10-16T02:50:27;5.32;;;4.00;;
50853;SDS011;44154;45.506;-122.806;2022-10-16T02:52:54;5.35;;;4.25;;
50853;SDS011;44154;45.506;-122.806;2022-10-16T02:55:20;5.15;;;4.20;;
50853;SDS011;44154;45.506;-122.806;2022-10-16T02:57:46;5.28;;;4.10;;
50853;SDS011;44154;45.506;-122.806;2022-10-16T03:00:13;5.78;;;4.75;;
50853;SDS011;44154;45.506;-122.806;2022-10-16T03:02:40;5.72;;;4.57;;
50853;SDS011;44154;45.506;-122.806;2022-10-16T03:05:07;6.32;;;4.50;;
50853;SDS011;44154;45.506;-122.806;2022-10-16T03:07:33;5.72;;;4.30;;
50853;SDS011;44154;45.506;-122.806;2022-10-16T03:10:00;5.03;;;4.50;;
50853;SDS011;44154;45.506;-122.806;2022-10-16T03:12:26;5.25;;;4.65;;
50853;SDS011;44154;45.506;-122.806;2022-10-16T03:14:53;5.95;;;4.40;;
50853;SDS011;44154;45.506;-122.806;2022-10-16T03:17:20;5.78;;;4.18;;
50853;SDS011;44154;45.506;-122.806;2022-10-16T03:19:46;6.43;;;4.43;;
50853;SDS011;44154;45.506;-122.806;2022-10-16T03:22:12;5.70;;;4.45;;
50853;SDS011;44154;45.506;-122.806;2022-10-16T03:24:38;6.90;;;4.18;;
50853;SDS011;44154;45.506;-122.806;2022-10-16T03:27:04;6.03;;;4.38;;
50853;SDS011;44154;45.506;-122.806;2022-10-16T03:29:31;5.45;;;4.35;;
50853;SDS011;44154;45.506;-122.806;2022-10-16T03:31:58;6.22;;;4.20;;
50853;SDS011;44154;45.506;-122.806;2022-10-16T03:34:25;6.22;;;4.43;;
50853;SDS011;44154;45.506;-122.806;2022-10-16T03:36:51;5.65;;;4.07;;
50853;SDS011;44154;45.506;-122.806;2022-10-16T03:39:18;5.95;;;4.50;;
50853;SDS011;44154;45.506;-122.806;2022-10-16T03:41:44;6.20;;;4.65;;
50853;SDS011;44154;45.506;-122.806;2022-10-16T03:44:12;5.75;;;4.30;;
50853;SDS011;44154;45.506;-122.806;2022-10-16T03:46:38;6.00;;;4.78;;
50853;SDS011;44154;45.506;-122.806;2022-10-16T03:49:04;5.03;;;4.22;;
50853;SDS011;44154;45.506;-122.806;2022-10-16T03:51:30;5.07;;;4.55;;
50853;SDS011;44154;45.506;-122.806;2022-10-16T03:53:57;5.50;;;4.90;;
50853;SDS011;44154;45.506;-122.806;2022-10-16T03:56:23;5.45;;;4.40;;
50853;SDS011;44154;45.506;-122.806;2022-10-16T03:58:49;5.95;;;4.35;;
50853;SDS011;44154;45.506;-122.806;2022-10-16T04:01:15;6.38;;;4.70;;
50853;SDS011;44154;45.506;-122.806;2022-10-16T04:03:41;5.63;;;4.30;;
50853;SDS011;44154;45.506;-122.806;2022-10-16T04:06:08;4.95;;;4.13;;
50853;SDS011;44154;45.506;-122.806;2022-10-16T04:08:34;4.93;;;4.30;;
50853;SDS011;44154;45.506;-122.806;2022-10-16T04:11:02;6.50;;;4.47;;
50853;SDS011;44154;45.506;-122.806;2022-10-16T04:13:28;5.35;;;4.50;;
50853;SDS011;44154;45.506;-122.806;2022-10-16T04:15:55;4.60;;;3.95;;
50853;SDS011;44154;45.506;-122.806;2022-10-16T04:18:21;5.82;;;4.40;;
50853;SDS011;44154;45.506;-122.806;2022-10-16T04:20:48;5.40;;;4.57;;
50853;SDS011;44154;45.506;-122.806;2022-10-16T04:23:14;6.05;;;4.53;;
50853;SDS011;44154;45.506;-122.806;2022-10-16T04:25:41;5.90;;;4.43;;
50853;SDS011;44154;45.506;-122.806;2022-10-16T04:28:07;5.55;;;4.35;;
50853;SDS011;44154;45.506;-122.806;2022-10-16T04:30:33;5.78;;;4.78;;
50853;SDS011;44154;45.506;-122.806;2022-10-16T04:32:59;5.03;;;4.47;;
50853;SDS011;44154;45.506;-122.806;2022-10-16T04:35:25;5.20;;;4.32;;
50853;SDS011;44154;45.506;-122.806;2022-10-16T04:37:52;4.60;;;4.10;;
50853;SDS011;44154;45.506;-122.806;2022-10-16T04:40:18;5.13;;;4.53;;
50853;SDS011;44154;45.506;-122.806;2022-10-16T04:42:44;5.57;;;4.55;;
50853;SDS011;44154;45.506;-122.806;2022-10-16T04:45:10;5.88;;;4.35;;
50853;SDS011;44154;45.506;-122.806;2022-10-16T04:47:37;5.85;;;4.72;;
50853;SDS011;44154;45.506;-122.806;2022-10-16T04:50:03;5.35;;;4.40;;
50853;SDS011;44154;45.506;-122.806;2022-10-16T04:52:29;4.95;;;4.25;;
50853;SDS011;44154;45.506;-122.806;2022-10-16T04:54:57;5.25;;;4.20;;
50853;SDS011;44154;45.506;-122.806;2022-10-16T04:57:27;5.60;;;4.03;;
50853;SDS011;44154;45.506;-122.806;2022-10-16T04:59:53;4.75;;;4.18;;
50853;SDS011;44154;45.506;-122.806;2022-10-16T05:02:19;5.68;;;4.45;;
50853;SDS011;44154;45.506;-122.806;2022-10-16T05:04:46;5.75;;;4.60;;
50853;SDS011;44154;45.506;-122.806;2022-10-16T05:07:12;6.57;;;4.78;;
50853;SDS011;44154;45.506;-122.806;2022-10-16T05:09:38;5.40;;;4.45;;
50853;SDS011;44154;45.506;-122.806;2022-10-16T05:12:04;5.85;;;4.65;;
50853;SDS011;44154;45.506;-122.806;2022-10-16T05:14:31;6.32;;;4.35;;
50853;SDS011;44154;45.506;-122.806;2022-10-16T05:16:57;5.28;;;4.47;;
50853;SDS011;44154;45.506;-122.806;2022-10-16T05:19:24;5.07;;;4.45;;
50853;SDS011;44154;45.506;-122.806;2022-10-16T05:21:50;5.38;;;4.50;;
50853;SDS011;44154;45.506;-122.806;2022-10-16T05:24:17;4.78;;;4.07;;
50853;SDS011;44154;45.506;-122.806;2022-10-16T05:26:43;5.00;;;4.30;;
50853;SDS011;44154;45.506;-122.806;2022-10-16T05:29:09;5.18;;;4.28;;
50853;SDS011;44154;45.506;-122.806;2022-10-16T05:31:35;5.57;;;4.22;;
50853;SDS011;44154;45.506;-122.806;2022-10-16T05:34:02;5.75;;;4.15;;
50853;SDS011;44154;45.506;-122.806;2022-10-16T05:36:28;4.78;;;4.15;;
50853;SDS011;44154;45.506;-122.806;2022-10-16T05:38:54;6.13;;;4.80;;
50853;SDS011;44154;45.506;-122.806;2022-10-16T05:41:20;5.40;;;4.57;;
50853;SDS011;44154;45.506;-122.806;2022-10-16T05:43:48;5.53;;;4.20;;
50853;SDS011;44154;45.506;-122.806;2022-10-16T05:46:15;6.03;;;4.50;;
50853;SDS011;44154;45.506;-122.806;2022-10-16T05:48:41;4.70;;;3.72;;
50853;SDS011;44154;45.506;-122.806;2022-10-16T05:51:09;5.20;;;4.05;;
50853;SDS011;44154;45.506;-122.806;2022-10-16T05:53:37;5.85;;;4.50;;
50853;SDS011;44154;45.506;-122.806;2022-10-16T05:56:04;5.13;;;4.45;;
50853;SDS011;44154;45.506;-122.806;2022-10-16T05:58:33;4.93;;;4.13;;
50853;SDS011;44154;45.506;-122.806;2022-10-16T06:01:02;5.38;;;4.40;;
50853;SDS011;44154;45.506;-122.806;2022-10-16T06:03:30;6.00;;;4.53;;
50853;SDS011;44154;45.506;-122.806;2022-10-16T06:05:56;4.63;;;3.97;;
50853;SDS011;44154;45.506;-122.806;2022-10-16T06:08:22;5.18;;;4.20;;
50853;SDS011;44154;45.506;-122.806;2022-10-16T06:10:59;6.85;;;4.40;;
50853;SDS011;44154;45.506;-122.806;2022-10-16T06:13:27;5.68;;;4.55;;
50853;SDS011;44154;45.506;-122.806;2022-10-16T06:15:53;5.45;;;4.15;;
50853;SDS011;44154;45.506;-122.806;2022-10-16T06:18:22;4.95;;;4.45;;
50853;SDS011;44154;45.506;-122.806;2022-10-16T06:20:48;5.32;;;4.13;;
50853;SDS011;44154;45.506;-122.806;2022-10-16T06:23:14;5.80;;;4.30;;
50853;SDS011;44154;45.506;-122.806;2022-10-16T06:25:40;5.38;;;4.40;;
50853;SDS011;44154;45.506;-122.806;2022-10-16T06:28:07;5.22;;;4.25;;
50853;SDS011;44154;45.506;-122.806;2022-10-16T06:30:33;4.68;;;4.00;;
50853;SDS011;44154;45.506;-122.806;2022-10-16T06:32:59;4.85;;;4.35;;
50853;SDS011;44154;45.506;-122.806;2022-10-16T06:35:25;5.03;;;4.18;;
50853;SDS011;44154;45.506;-122.806;2022-10-16T06:37:52;4.88;;;4.05;;
50853;SDS011;44154;45.506;-122.806;2022-10-16T06:40:18;5.22;;;3.90;;
50853;SDS011;44154;45.506;-122.806;2022-10-16T06:42:45;5.22;;;4.55;;
50853;SDS011;44154;45.506;-122.806;2022-10-16T06:45:11;4.85;;;4.10;;
50853;SDS011;44154;45.506;-122.806;2022-10-16T06:47:37;5.10;;;4.10;;
50853;SDS011;44154;45.506;-122.806;2022-10-16T06:50:04;5.28;;;4.03;;
50853;SDS011;44154;45.506;-122.806;2022-10-16T06:52:32;4.70;;;4.07;;
50853;SDS011;44154;45.506;-122.806;2022-10-16T06:54:58;4.95;;;4.13;;
50853;SDS011;44154;45.506;-122.806;2022-10-16T06:57:25;6.28;;;4.50;;
50853;SDS011;44154;45.506;-122.806;2022-10-16T06:59:51;5.40;;;4.30;;
50853;SDS011;44154;45.506;-122.806;2022-10-16T07:02:18;5.30;;;4.13;;
50853;SDS011;44154;45.506;-122.806;2022-10-16T07:04:44;6.20;;;4.72;;
50853;SDS011;44154;45.506;-122.806;2022-10-16T07:07:10;4.78;;;4.10;;
50853;SDS011;44154;45.506;-122.806;2022-10-16T07:09:36;5.53;;;4.57;;
50853;SDS011;44154;45.506;-122.806;2022-10-16T07:12:02;5.00;;;4.13;;
50853;SDS011;44154;45.506;-122.806;2022-10-16T07:14:29;4.90;;;3.88;;
50853;SDS011;44154;45.506;-122.806;2022-10-16T07:16:55;5.88;;;4.28;;
50853;SDS011;44154;45.506;-122.806;2022-10-16T07:19:21;5.15;;;4.15;;
50853;SDS011;44154;45.506;-122.806;2022-10-16T07:21:47;5.60;;;4.10;;
50853;SDS011;44154;45.506;-122.806;2022-10-16T07:24:14;5.53;;;4.25;;
50853;SDS011;44154;45.506;-122.806;2022-10-16T07:26:42;4.70;;;4.03;;
50853;SDS011;44154;45.506;-122.806;2022-10-16T07:29:16;4.90;;;4.00;;
50853;SDS011;44154;45.506;-122.806;2022-10-16T07:31:44;4.75;;;4.22;;
50853;SDS011;44154;45.506;-122.806;2022-10-16T07:34:12;5.65;;;4.28;;
50853;SDS011;44154;45.506;-122.806;2022-10-16T07:36:40;5.40;;;4.40;;
50853;SDS011;44154;45.506;-122.806;2022-10-16T07:39:06;4.80;;;3.88;;
50853;SDS011;44154;45.506;-122.806;2022-10-16T07:41:33;4.43;;;3.88;;
50853;SDS011;44154;45.506;-122.806;2022-10-16T07:44:02;4.82;;;4.15;;
50853;SDS011;44154;45.506;-122.806;2022-10-16T07:46:28;5.30;;;4.22;;
50853;SDS011;44154;45.506;-122.806;2022-10-16T07:48:55;5.20;;;4.13;;
50853;SDS011;44154;45.506;-122.806;2022-10-16T07:51:22;4.85;;;4.00;;
50853;SDS011;44154;45.506;-122.806;2022-10-16T07:53:50;4.20;;;3.70;;
50853;SDS011;44154;45.506;-122.806;2022-10-16T07:56:16;4.95;;;3.92;;
50853;SDS011;44154;45.506;-122.806;2022-10-16T07:58:44;5.43;;;4.28;;
50853;SDS011;44154;45.506;-122.806;2022-10-16T08:01:12;4.80;;;4.13;;
50853;SDS011;44154;45.506;-122.806;2022-10-16T08:03:43;4.53;;;3.85;;
50853;SDS011;44154;45.506;-122.806;2022-10-16T08:06:10;4.68;;;3.97;;
50853;SDS011;44154;45.506;-122.806;2022-10-16T08:08:36;5.03;;;3.92;;
50853;SDS011;44154;45.506;-122.806;2022-10-16T08:11:03;4.82;;;4.20;;
50853;SDS011;44154;45.506;-122.806;2022-10-16T08:13:29;4.88;;;4.13;;
50853;SDS011;44154;45.506;-122.806;2022-10-16T08:15:56;4.68;;;3.80;;
50853;SDS011;44154;45.506;-122.806;2022-10-16T08:18:22;4.47;;;3.65;;
50853;SDS011;44154;45.506;-122.806;2022-10-16T08:20:54;4.43;;;3.85;;
50853;SDS011;44154;45.506;-122.806;2022-10-16T08:23:22;4.63;;;4.13;;
50853;SDS011;44154;45.506;-122.806;2022-10-16T08:25:48;4.28;;;3.78;;
50853;SDS011;44154;45.506;-122.806;2022-10-16T08:28:14;4.60;;;4.00;;
50853;SDS011;44154;45.506;-122.806;2022-10-16T08:30:41;4.72;;;3.67;;
50853;SDS011;44154;45.506;-122.806;2022-10-16T08:33:08;5.78;;;4.15;;
50853;SDS011;44154;45.506;-122.806;2022-10-16T08:35:34;5.50;;;3.80;;
50853;SDS011;44154;45.506;-122.806;2022-10-16T08:38:02;5.05;;;4.13;;
50853;SDS011;44154;45.506;-122.806;2022-10-16T08:40:30;4.43;;;3.63;;
50853;SDS011;44154;45.506;-122.806;2022-10-16T08:43:02;5.35;;;3.92;;
50853;SDS011;44154;45.506;-122.806;2022-10-16T08:48:43;4.40;;;3.90;;
50853;SDS011;44154;45.506;-122.806;2022-10-16T08:54:02;5.15;;;4.03;;
50853;SDS011;44154;45.506;-122.806;2022-10-16T08:56:29;5.07;;;4.20;;
50853;SDS011;44154;45.506;-122.806;2022-10-16T08:58:57;5.32;;;3.67;;
50853;SDS011;44154;45.506;-122.806;2022-10-16T09:01:25;4.00;;;3.42;;
50853;SDS011;44154;45.506;-122.806;2022-10-16T09:06:45;4.93;;;3.72;;
50853;SDS011;44154;45.506;-122.806;2022-10-16T09:17:44;4.85;;;4.00;;
50853;SDS011;44154;45.506;-122.806;2022-10-16T09:25:30;4.25;;;3.70;;
50853;SDS011;44154;45.506;-122.806;2022-10-16T09:27:58;4.40;;;4.00;;
50853;SDS011;44154;45.506;-122.806;2022-10-16T09:30:26;4.45;;;4.05;;
50853;SDS011;44154;45.506;-122.806;2022-10-16T09:32:54;4.00;;;3.60;;
50853;SDS011;44154;45.506;-122.806;2022-10-16T09:35:35;5.13;;;4.15;;
50853;SDS011;44154;45.506;-122.806;2022-10-16T09:38:08;4.85;;;3.97;;
50853;SDS011;44154;45.506;-122.806;2022-10-16T09:40:46;4.70;;;3.78;;
50853;SDS011;44154;45.506;-122.806;2022-10-16T09:45:54;5.63;;;3.38;;
50853;SDS011;44154;45.506;-122.806;2022-10-16T09:48:20;3.75;;;3.30;;
50853;SDS011;44154;45.506;-122.806;2022-10-16T09:51:00;4.47;;;3.88;;
50853;SDS011;44154;45.506;-122.806;2022-10-16T09:53:39;5.45;;;3.50;;
50853;SDS011;44154;45.506;-122.806;2022-10-16T09:56:20;4.18;;;3.42;;
50853;SDS011;44154;45.506;-122.806;2022-10-16T09:59:10;4.72;;;3.75;;
50853;SDS011;44154;45.506;-122.806;2022-10-16T10:01:37;4.30;;;3.53;;
50853;SDS011;44154;45.506;-122.806;2022-10-16T10:04:06;4.20;;;3.50;;
50853;SDS011;44154;45.506;-122.806;2022-10-16T10:06:37;5.53;;;4.18;;
50853;SDS011;44154;45.506;-122.806;2022-10-16T10:09:17;4.40;;;3.55;;
50853;SDS011;44154;45.506;-122.806;2022-10-16T10:11:51;4.45;;;3.60;;
50853;SDS011;44154;45.506;-122.806;2022-10-16T10:19:42;4.50;;;3.60;;
50853;SDS011;44154;45.506;-122.806;2022-10-16T10:27:41;4.07;;;3.55;;
50853;SDS011;44154;45.506;-122.806;2022-10-16T10:44:07;4.63;;;3.80;;
50853;SDS011;44154;45.506;-122.806;2022-10-16T10:47:27;4.72;;;3.78;;
50853;SDS011;44154;45.506;-122.806;2022-10-16T10:50:00;4.57;;;3.53;;
50853;SDS011;44154;45.506;-122.806;2022-10-16T10:58:35;4.05;;;3.55;;
50853;SDS011;44154;45.506;-122.806;2022-10-16T11:07:05;4.38;;;3.45;;
50853;SDS011;44154;45.506;-122.806;2022-10-16T11:09:41;5.05;;;3.70;;
50853;SDS011;44154;45.506;-122.806;2022-10-16T11:12:29;4.38;;;3.63;;
50853;SDS011;44154;45.506;-122.806;2022-10-16T11:18:04;3.75;;;3.35;;
50853;SDS011;44154;45.506;-122.806;2022-10-16T11:20:34;3.83;;;3.20;;
50853;SDS011;44154;45.506;-122.806;2022-10-16T11:25:51;4.30;;;3.33;;
50853;SDS011;44154;45.506;-122.806;2022-10-16T11:31:10;4.68;;;3.58;;
50853;SDS011;44154;45.506;-122.806;2022-10-16T11:33:51;4.07;;;3.50;;
50853;SDS011;44154;45.506;-122.806;2022-10-16T11:41:41;4.18;;;3.38;;
50853;SDS011;44154;45.506;-122.806;2022-10-16T11:49:37;4.22;;;3.70;;
50853;SDS011;44154;45.506;-122.806;2022-10-16T11:52:14;4.68;;;2.97;;
50853;SDS011;44154;45.506;-122.806;2022-10-16T11:54:50;3.80;;;3.05;;
50853;SDS011;44154;45.506;-122.806;2022-10-16T11:57:21;4.15;;;3.28;;
50853;SDS011;44154;45.506;-122.806;2022-10-16T12:00:02;4.10;;;3.22;;
50853;SDS011;44154;45.506;-122.806;2022-10-16T12:02:37;4.22;;;3.35;;
50853;SDS011;44154;45.506;-122.806;2022-10-16T12:08:13;4.57;;;3.40;;
50853;SDS011;44154;45.506;-122.806;2022-10-16T12:10:42;4.10;;;3.50;;
50853;SDS011;44154;45.506;-122.806;2022-10-16T12:16:19;3.90;;;3.30;;
50853;SDS011;44154;45.506;-122.806;2022-10-16T12:18:47;4.88;;;3.33;;
50853;SDS011;44154;45.506;-122.806;2022-10-16T12:21:14;4.18;;;3.78;;
50853;SDS011;44154;45.506;-122.806;2022-10-16T12:23:51;4.10;;;3.30;;
50853;SDS011;44154;45.506;-122.806;2022-10-16T12:26:29;4.07;;;3.15;;
50853;SDS011;44154;45.506;-122.806;2022-10-16T12:34:48;4.20;;;3.33;;
50853;SDS011;44154;45.506;-122.806;2022-10-16T12:37:18;3.75;;;3.22;;
50853;SDS011;44154;45.506;-122.806;2022-10-16T12:39:48;4.15;;;3.47;;
50853;SDS011;44154;45.506;-122.806;2022-10-16T12:44:55;3.88;;;3.22;;
50853;SDS011;44154;45.506;-122.806;2022-10-16T12:49:56;4.60;;;3.33;;
50853;SDS011;44154;45.506;-122.806;2022-10-16T12:52:41;3.92;;;3.08;;
50853;SDS011;44154;45.506;-122.806;2022-10-16T12:55:15;4.53;;;3.45;;
50853;SDS011;44154;45.506;-122.806;2022-10-16T12:57:54;3.92;;;3.10;;
50853;SDS011;44154;45.506;-122.806;2022-10-16T13:01:27;3.72;;;3.30;;
50853;SDS011;44154;45.506;-122.806;2022-10-16T13:09:10;4.63;;;3.25;;
50853;SDS011;44154;45.506;-122.806;2022-10-16T13:23:17;3.80;;;3.00;;
50853;SDS011;44154;45.506;-122.806;2022-10-16T13:28:34;4.13;;;3.13;;
50853;SDS011;44154;45.506;-122.806;2022-10-16T13:31:03;4.03;;;3.33;;
50853;SDS011;44154;45.506;-122.806;2022-10-16T13:33:37;3.70;;;3.00;;
50853;SDS011;44154;45.506;-122.806;2022-10-16T13:36:17;3.80;;;3.20;;
50853;SDS011;44154;45.506;-122.806;2022-10-16T13:39:06;4.60;;;3.33;;
50853;SDS011;44154;45.506;-122.806;2022-10-16T13:41:38;4.38;;;3.58;;
50853;SDS011;44154;45.506;-122.806;2022-10-16T13:44:05;3.90;;;3.20;;
50853;SDS011;44154;45.506;-122.806;2022-10-16T13:46:39;4.78;;;3.42;;
50853;SDS011;44154;45.506;-122.806;2022-10-16T13:49:11;3.78;;;3.28;;
50853;SDS011;44154;45.506;-122.806;2022-10-16T13:51:39;3.67;;;3.15;;
50853;SDS011;44154;45.506;-122.806;2022-10-16T13:54:07;3.95;;;2.95;;
50853;SDS011;44154;45.506;-122.806;2022-10-16T13:56:35;3.67;;;3.00;;
50853;SDS011;44154;45.506;-122.806;2022-10-16T13:59:05;3.70;;;3.10;;
50853;SDS011;44154;45.506;-122.806;2022-10-16T14:01:47;3.70;;;2.83;;
50853;SDS011;44154;45.506;-122.806;2022-10-16T14:04:15;3.50;;;2.92;;
50853;SDS011;44154;45.506;-122.806;2022-10-16T14:06:42;4.13;;;3.03;;
50853;SDS011;44154;45.506;-122.806;2022-10-16T14:11:54;4.45;;;2.80;;
50853;SDS011;44154;45.506;-122.806;2022-10-16T14:14:23;3.47;;;2.80;;
50853;SDS011;44154;45.506;-122.806;2022-10-16T14:16:52;3.92;;;3.05;;
50853;SDS011;44154;45.506;-122.806;2022-10-16T14:19:20;4.50;;;3.22;;
50853;SDS011;44154;45.506;-122.806;2022-10-16T14:21:50;4.15;;;3.40;;
50853;SDS011;44154;45.506;-122.806;2022-10-16T14:24:25;3.33;;;2.92;;
50853;SDS011;44154;45.506;-122.806;2022-10-16T14:26:56;3.97;;;3.22;;
50853;SDS011;44154;45.506;-122.806;2022-10-16T14:29:24;4.68;;;3.20;;
50853;SDS011;44154;45.506;-122.806;2022-10-16T14:31:56;4.00;;;3.20;;
50853;SDS011;44154;45.506;-122.806;2022-10-16T14:34:29;4.35;;;3.08;;
50853;SDS011;44154;45.506;-122.806;2022-10-16T14:36:59;4.00;;;2.97;;
50853;SDS011;44154;45.506;-122.806;2022-10-16T14:39:40;4.10;;;2.97;;
50853;SDS011;44154;45.506;-122.806;2022-10-16T14:42:16;3.80;;;3.08;;
50853;SDS011;44154;45.506;-122.806;2022-10-16T14:44:45;3.78;;;3.20;;
50853;SDS011;44154;45.506;-122.806;2022-10-16T14:47:13;3.60;;;3.00;;
50853;SDS011;44154;45.506;-122.806;2022-10-16T14:49:41;3.60;;;3.13;;
50853;SDS011;44154;45.506;-122.806;2022-10-16T14:52:09;4.00;;;3.03;;
50853;SDS011;44154;45.506;-122.806;2022-10-16T14:54:36;4.13;;;3.25;;
50853;SDS011;44154;45.506;-122.806;2022-10-16T14:57:03;4.05;;;3.17;;
50853;SDS011;44154;45.506;-122.806;2022-10-16T14:59:36;3.70;;;3.00;;
50853;SDS011;44154;45.506;-122.806;2022-10-16T15:04:42;3.33;;;2.72;;
50853;SDS011;44154;45.506;-122.806;2022-10-16T15:07:09;3.78;;;2.75;;
50853;SDS011;44154;45.506;-122.806;2022-10-16T15:09:35;4.53;;;3.20;;
50853;SDS011;44154;45.506;-122.806;2022-10-16T15:12:01;4.63;;;2.97;;
50853;SDS011;44154;45.506;-122.806;2022-10-16T15:14:27;4.00;;;2.85;;
50853;SDS011;44154;45.506;-122.806;2022-10-16T15:16:53;3.70;;;3.10;;
50853;SDS011;44154;45.506;-122.806;2022-10-16T15:19:19;3.33;;;2.83;;
50853;SDS011;44154;45.506;-122.806;2022-10-16T15:21:45;3.58;;;2.78;;
50853;SDS011;44154;45.506;-122.806;2022-10-16T15:24:13;3.58;;;3.10;;
50853;SDS011;44154;45.506;-122.806;2022-10-16T15:26:39;3.80;;;3.00;;
50853;SDS011;44154;45.506;-122.806;2022-10-16T15:29:05;4.05;;;3.10;;
50853;SDS011;44154;45.506;-122.806;2022-10-16T15:31:32;4.22;;;3.28;;
50853;SDS011;44154;45.506;-122.806;2022-10-16T15:33:59;4.63;;;3.20;;
50853;SDS011;44154;45.506;-122.806;2022-10-16T15:36:36;4.07;;;2.92;;
50853;SDS011;44154;45.506;-122.806;2022-10-16T15:39:04;3.45;;;2.70;;
50853;SDS011;44154;45.506;-122.806;2022-10-16T15:41:37;3.50;;;2.97;;
50853;SDS011;44154;45.506;-122.806;2022-10-16T15:44:03;3.47;;;2.58;;
50853;SDS011;44154;45.506;-122.806;2022-10-16T15:46:29;4.10;;;3.08;;
50853;SDS011;44154;45.506;-122.806;2022-10-16T15:48:57;3.80;;;2.83;;
50853;SDS011;44154;45.506;-122.806;2022-10-16T15:51:24;3.78;;;3.00;;
50853;SDS011;44154;45.506;-122.806;2022-10-16T15:53:58;3.88;;;3.10;;
50853;SDS011;44154;45.506;-122.806;2022-10-16T15:56:26;3.20;;;2.63;;
50853;SDS011;44154;45.506;-122.806;2022-10-16T15:58:53;3.70;;;2.88;;
50853;SDS011;44154;45.506;-122.806;2022-10-16T16:01:20;3.47;;;2.83;;
50853;SDS011;44154;45.506;-122.806;2022-10-16T16:03:47;3.25;;;2.90;;
50853;SDS011;44154;45.506;-122.806;2022-10-16T16:06:14;3.63;;;3.00;;
50853;SDS011;44154;45.506;-122.806;2022-10-16T16:08:40;3.45;;;2.75;;
50853;SDS011;44154;45.506;-122.806;2022-10-16T16:11:08;3.75;;;3.22;;
50853;SDS011;44154;45.506;-122.806;2022-10-16T16:13:36;3.92;;;2.80;;
50853;SDS011;44154;45.506;-122.806;2022-10-16T16:16:07;3.67;;;2.78;;
50853;SDS011;44154;45.506;-122.806;2022-10-16T16:18:34;3.28;;;2.58;;
50853;SDS011;44154;45.506;-122.806;2022-10-16T16:21:01;3.78;;;2.78;;
50853;SDS011;44154;45.506;-122.806;2022-10-16T16:23:28;3.92;;;2.97;;
50853;SDS011;44154;45.506;-122.806;2022-10-16T16:28:35;2.88;;;2.25;;
50853;SDS011;44154;45.506;-122.806;2022-10-16T16:31:02;3.60;;;2.63;;
50853;SDS011;44154;45.506;-122.806;2022-10-16T16:33:29;3.08;;;2.67;;
50853;SDS011;44154;45.506;-122.806;2022-10-16T16:36:00;3.50;;;2.85;;
50853;SDS011;44154;45.506;-122.806;2022-10-16T16:38:27;4.22;;;2.97;;
50853;SDS011;44154;45.506;-122.806;2022-10-16T16:40:54;4.13;;;2.90;;
50853;SDS011;44154;45.506;-122.806;2022-10-16T16:43:24;3.83;;;2.90;;
50853;SDS011;44154;45.506;-122.806;2022-10-16T16:45:52;3.40;;;2.63;;
50853;SDS011;44154;45.506;-122.806;2022-10-16T16:48:19;3.55;;;2.95;;
50853;SDS011;44154;45.506;-122.806;2022-10-16T16:50:46;3.83;;;2.90;;
50853;SDS011;44154;45.506;-122.806;2022-10-16T16:53:12;4.18;;;2.92;;
50853;SDS011;44154;45.506;-122.806;2022-10-16T16:55:38;3.42;;;2.78;;
50853;SDS011;44154;45.506;-122.806;2022-10-16T16:58:04;3.80;;;3.10;;